sensor_id;sensor_type;location;lat;lon;timestamp;P1;durP1;ratioP1;P2;durP2;ratioP2
56581;SDS011;42463;52.214;21.238;2022-12-18T00:01:50;41.90;;;19.90;;
56581;SDS011;42463;52.214;21.238;2022-12-18T00:04:19;41.70;;;18.30;;
56581;SDS011;42463;52.214;21.238;2022-12-18T00:06:46;38.80;;;17.10;;
56581;SDS011;42463;52.214;21.238;2022-12-18T00:09:11;35.60;;;16.50;;
56581;SDS011;42463;52.214;21.238;2022-12-18T00:11:38;38.40;;;16.60;;
56581;SDS011;42463;52.214;21.238;2022-12-18T00:14:03;36.30;;;16.40;;
56581;SDS011;42463;52.214;21.238;2022-12-18T00:16:29;39.60;;;17.30;;
56581;SDS011;42463;52.214;21.238;2022-12-18T00:18:57;38.80;;;16.90;;
56581;SDS011;42463;52.214;21.238;2022-12-18T00:21:22;35.40;;;17.10;;
56581;SDS011;42463;52.214;21.238;2022-12-18T00:23:50;35.60;;;17.40;;
56581;SDS011;42463;52.214;21.238;2022-12-18T00:26:18;36.00;;;16.50;;
56581;SDS011;42463;52.214;21.238;2022-12-18T00:28:45;37.30;;;17.60;;
56581;SDS011;42463;52.214;21.238;2022-12-18T00:31:12;38.20;;;15.90;;
56581;SDS011;42463;52.214;21.238;2022-12-18T00:33:41;38.50;;;17.30;;
56581;SDS011;42463;52.214;21.238;2022-12-18T00:36:07;41.00;;;17.40;;
56581;SDS011;42463;52.214;21.238;2022-12-18T00:38:34;41.10;;;18.50;;
56581;SDS011;42463;52.214;21.238;2022-12-18T00:41:00;39.40;;;18.30;;
56581;SDS011;42463;52.214;21.238;2022-12-18T00:43:25;28.70;;;14.20;;
56581;SDS011;42463;52.214;21.238;2022-12-18T00:45:57;36.70;;;17.20;;
56581;SDS011;42463;52.214;21.238;2022-12-18T00:48:24;35.80;;;16.40;;
56581;SDS011;42463;52.214;21.238;2022-12-18T00:50:50;35.70;;;16.50;;
56581;SDS011;42463;52.214;21.238;2022-12-18T00:53:15;34.10;;;15.10;;
56581;SDS011;42463;52.214;21.238;2022-12-18T00:55:46;40.20;;;18.10;;
56581;SDS011;42463;52.214;21.238;2022-12-18T00:58:12;43.10;;;17.00;;
56581;SDS011;42463;52.214;21.238;2022-12-18T01:00:41;38.70;;;17.20;;
56581;SDS011;42463;52.214;21.238;2022-12-18T01:03:07;34.40;;;14.90;;
56581;SDS011;42463;52.214;21.238;2022-12-18T01:05:32;36.00;;;15.70;;
56581;SDS011;42463;52.214;21.238;2022-12-18T01:08:02;36.70;;;15.40;;
56581;SDS011;42463;52.214;21.238;2022-12-18T01:10:29;34.30;;;16.10;;
56581;SDS011;42463;52.214;21.238;2022-12-18T01:12:56;33.90;;;15.20;;
56581;SDS011;42463;52.214;21.238;2022-12-18T01:15:21;34.80;;;16.20;;
56581;SDS011;42463;52.214;21.238;2022-12-18T01:17:47;37.30;;;16.60;;
56581;SDS011;42463;52.214;21.238;2022-12-18T01:20:14;30.60;;;13.10;;
56581;SDS011;42463;52.214;21.238;2022-12-18T01:22:39;35.60;;;15.00;;
56581;SDS011;42463;52.214;21.238;2022-12-18T01:25:08;30.40;;;12.80;;
56581;SDS011;42463;52.214;21.238;2022-12-18T01:27:38;33.80;;;14.80;;
56581;SDS011;42463;52.214;21.238;2022-12-18T01:30:05;29.00;;;13.40;;
56581;SDS011;42463;52.214;21.238;2022-12-18T01:32:34;29.00;;;13.90;;
56581;SDS011;42463;52.214;21.238;2022-12-18T01:35:01;25.60;;;11.60;;
56581;SDS011;42463;52.214;21.238;2022-12-18T01:37:27;27.00;;;11.80;;
56581;SDS011;42463;52.214;21.238;2022-12-18T01:39:53;29.90;;;13.20;;
56581;SDS011;42463;52.214;21.238;2022-12-18T01:42:19;31.20;;;13.20;;
56581;SDS011;42463;52.214;21.238;2022-12-18T01:44:56;32.40;;;14.10;;
56581;SDS011;42463;52.214;21.238;2022-12-18T01:47:24;32.40;;;14.20;;
56581;SDS011;42463;52.214;21.238;2022-12-18T01:49:54;28.10;;;12.20;;
56581;SDS011;42463;52.214;21.238;2022-12-18T01:52:22;28.90;;;12.10;;
56581;SDS011;42463;52.214;21.238;2022-12-18T01:54:51;21.90;;;11.00;;
56581;SDS011;42463;52.214;21.238;2022-12-18T01:57:20;27.10;;;12.70;;
56581;SDS011;42463;52.214;21.238;2022-12-18T01:59:55;29.60;;;13.10;;
56581;SDS011;42463;52.214;21.238;2022-12-18T02:03:42;23.00;;;10.90;;
56581;SDS011;42463;52.214;21.238;2022-12-18T02:06:09;27.20;;;12.00;;
56581;SDS011;42463;52.214;21.238;2022-12-18T02:08:42;26.70;;;13.00;;
56581;SDS011;42463;52.214;21.238;2022-12-18T02:11:17;21.40;;;10.50;;
56581;SDS011;42463;52.214;21.238;2022-12-18T02:13:56;25.90;;;12.20;;
56581;SDS011;42463;52.214;21.238;2022-12-18T02:16:33;24.00;;;11.20;;
56581;SDS011;42463;52.214;21.238;2022-12-18T02:19:09;20.30;;;8.80;;
56581;SDS011;42463;52.214;21.238;2022-12-18T02:21:51;26.40;;;12.30;;
56581;SDS011;42463;52.214;21.238;2022-12-18T02:24:29;29.10;;;12.30;;
56581;SDS011;42463;52.214;21.238;2022-12-18T02:27:02;25.10;;;13.10;;
56581;SDS011;42463;52.214;21.238;2022-12-18T02:29:34;23.20;;;11.40;;
56581;SDS011;42463;52.214;21.238;2022-12-18T02:32:02;27.40;;;12.80;;
56581;SDS011;42463;52.214;21.238;2022-12-18T02:34:32;26.80;;;12.20;;
56581;SDS011;42463;52.214;21.238;2022-12-18T02:37:02;30.80;;;13.60;;
56581;SDS011;42463;52.214;21.238;2022-12-18T02:39:35;26.10;;;11.40;;
56581;SDS011;42463;52.214;21.238;2022-12-18T02:42:05;29.40;;;13.30;;
56581;SDS011;42463;52.214;21.238;2022-12-18T02:44:32;25.80;;;13.00;;
56581;SDS011;42463;52.214;21.238;2022-12-18T02:47:08;26.60;;;11.60;;
56581;SDS011;42463;52.214;21.238;2022-12-18T02:49:36;27.60;;;12.60;;
56581;SDS011;42463;52.214;21.238;2022-12-18T02:52:17;29.50;;;13.50;;
56581;SDS011;42463;52.214;21.238;2022-12-18T02:55:00;28.50;;;13.50;;
56581;SDS011;42463;52.214;21.238;2022-12-18T02:57:45;25.70;;;12.90;;
56581;SDS011;42463;52.214;21.238;2022-12-18T03:00:20;28.20;;;12.70;;
56581;SDS011;42463;52.214;21.238;2022-12-18T03:02:53;28.70;;;14.10;;
56581;SDS011;42463;52.214;21.238;2022-12-18T03:05:25;24.50;;;11.40;;
56581;SDS011;42463;52.214;21.238;2022-12-18T03:07:58;24.80;;;12.80;;
56581;SDS011;42463;52.214;21.238;2022-12-18T03:10:33;29.10;;;13.20;;
56581;SDS011;42463;52.214;21.238;2022-12-18T03:13:03;27.70;;;13.90;;
56581;SDS011;42463;52.214;21.238;2022-12-18T03:15:36;27.70;;;12.70;;
56581;SDS011;42463;52.214;21.238;2022-12-18T03:18:12;28.40;;;13.20;;
56581;SDS011;42463;52.214;21.238;2022-12-18T03:20:40;29.90;;;13.40;;
56581;SDS011;42463;52.214;21.238;2022-12-18T03:23:15;32.30;;;13.30;;
56581;SDS011;42463;52.214;21.238;2022-12-18T03:25:46;25.70;;;12.70;;
56581;SDS011;42463;52.214;21.238;2022-12-18T03:28:18;27.80;;;12.20;;
56581;SDS011;42463;52.214;21.238;2022-12-18T03:30:50;28.70;;;12.80;;
56581;SDS011;42463;52.214;21.238;2022-12-18T03:33:21;26.30;;;11.20;;
56581;SDS011;42463;52.214;21.238;2022-12-18T03:35:56;21.00;;;10.10;;
56581;SDS011;42463;52.214;21.238;2022-12-18T03:38:23;25.20;;;11.10;;
56581;SDS011;42463;52.214;21.238;2022-12-18T03:40:53;24.70;;;10.90;;
56581;SDS011;42463;52.214;21.238;2022-12-18T03:43:32;21.00;;;10.90;;
56581;SDS011;42463;52.214;21.238;2022-12-18T03:46:06;23.80;;;11.40;;
56581;SDS011;42463;52.214;21.238;2022-12-18T03:48:43;25.60;;;11.10;;
56581;SDS011;42463;52.214;21.238;2022-12-18T03:51:16;22.60;;;10.60;;
56581;SDS011;42463;52.214;21.238;2022-12-18T03:53:51;23.90;;;11.10;;
56581;SDS011;42463;52.214;21.238;2022-12-18T03:56:25;23.90;;;11.00;;
56581;SDS011;42463;52.214;21.238;2022-12-18T03:58:55;25.20;;;11.20;;
56581;SDS011;42463;52.214;21.238;2022-12-18T04:01:28;27.50;;;12.00;;
56581;SDS011;42463;52.214;21.238;2022-12-18T04:04:00;26.70;;;11.40;;
56581;SDS011;42463;52.214;21.238;2022-12-18T04:06:31;21.60;;;10.40;;
56581;SDS011;42463;52.214;21.238;2022-12-18T04:08:59;23.70;;;11.20;;
56581;SDS011;42463;52.214;21.238;2022-12-18T04:11:29;21.60;;;11.00;;
56581;SDS011;42463;52.214;21.238;2022-12-18T04:14:05;22.80;;;11.30;;
56581;SDS011;42463;52.214;21.238;2022-12-18T04:16:35;17.70;;;10.00;;
56581;SDS011;42463;52.214;21.238;2022-12-18T04:19:03;21.70;;;9.50;;
56581;SDS011;42463;52.214;21.238;2022-12-18T04:21:35;19.40;;;10.50;;
56581;SDS011;42463;52.214;21.238;2022-12-18T04:24:02;20.30;;;10.60;;
56581;SDS011;42463;52.214;21.238;2022-12-18T04:26:29;21.30;;;10.50;;
56581;SDS011;42463;52.214;21.238;2022-12-18T04:29:19;19.90;;;9.40;;
56581;SDS011;42463;52.214;21.238;2022-12-18T04:31:59;21.70;;;10.50;;
56581;SDS011;42463;52.214;21.238;2022-12-18T04:34:33;21.50;;;8.90;;
56581;SDS011;42463;52.214;21.238;2022-12-18T04:37:17;18.70;;;9.30;;
56581;SDS011;42463;52.214;21.238;2022-12-18T04:39:45;20.30;;;10.00;;
56581;SDS011;42463;52.214;21.238;2022-12-18T04:42:18;22.60;;;10.40;;
56581;SDS011;42463;52.214;21.238;2022-12-18T04:44:55;19.20;;;9.60;;
56581;SDS011;42463;52.214;21.238;2022-12-18T04:47:24;20.80;;;9.90;;
56581;SDS011;42463;52.214;21.238;2022-12-18T04:49:50;20.90;;;10.60;;
56581;SDS011;42463;52.214;21.238;2022-12-18T04:52:17;18.50;;;9.30;;
56581;SDS011;42463;52.214;21.238;2022-12-18T04:54:46;19.40;;;9.70;;
56581;SDS011;42463;52.214;21.238;2022-12-18T04:57:17;18.80;;;10.10;;
56581;SDS011;42463;52.214;21.238;2022-12-18T04:59:45;20.30;;;9.50;;
56581;SDS011;42463;52.214;21.238;2022-12-18T05:02:13;20.40;;;10.00;;
56581;SDS011;42463;52.214;21.238;2022-12-18T05:04:42;19.20;;;9.60;;
56581;SDS011;42463;52.214;21.238;2022-12-18T05:07:10;24.30;;;10.70;;
56581;SDS011;42463;52.214;21.238;2022-12-18T05:09:36;18.90;;;9.50;;
56581;SDS011;42463;52.214;21.238;2022-12-18T05:12:03;21.10;;;10.70;;
56581;SDS011;42463;52.214;21.238;2022-12-18T05:14:29;19.00;;;9.70;;
56581;SDS011;42463;52.214;21.238;2022-12-18T05:16:55;20.10;;;10.10;;
56581;SDS011;42463;52.214;21.238;2022-12-18T05:19:28;21.00;;;10.70;;
56581;SDS011;42463;52.214;21.238;2022-12-18T05:21:55;23.10;;;11.00;;
56581;SDS011;42463;52.214;21.238;2022-12-18T05:24:24;22.90;;;10.20;;
56581;SDS011;42463;52.214;21.238;2022-12-18T05:26:55;23.10;;;10.80;;
56581;SDS011;42463;52.214;21.238;2022-12-18T05:29:22;21.50;;;10.70;;
56581;SDS011;42463;52.214;21.238;2022-12-18T05:31:52;18.40;;;9.30;;
56581;SDS011;42463;52.214;21.238;2022-12-18T05:34:22;14.90;;;7.30;;
56581;SDS011;42463;52.214;21.238;2022-12-18T05:36:49;19.80;;;10.00;;
56581;SDS011;42463;52.214;21.238;2022-12-18T05:39:15;22.30;;;10.40;;
56581;SDS011;42463;52.214;21.238;2022-12-18T05:41:48;16.00;;;8.20;;
56581;SDS011;42463;52.214;21.238;2022-12-18T05:44:19;17.00;;;8.60;;
56581;SDS011;42463;52.214;21.238;2022-12-18T05:46:47;15.60;;;7.60;;
56581;SDS011;42463;52.214;21.238;2022-12-18T05:49:14;17.90;;;9.90;;
56581;SDS011;42463;52.214;21.238;2022-12-18T05:51:44;15.30;;;7.10;;
56581;SDS011;42463;52.214;21.238;2022-12-18T05:54:11;14.70;;;8.00;;
56581;SDS011;42463;52.214;21.238;2022-12-18T05:56:37;16.30;;;9.10;;
56581;SDS011;42463;52.214;21.238;2022-12-18T05:59:03;19.60;;;8.70;;
56581;SDS011;42463;52.214;21.238;2022-12-18T06:01:31;16.20;;;7.40;;
56581;SDS011;42463;52.214;21.238;2022-12-18T06:03:59;18.70;;;8.80;;
56581;SDS011;42463;52.214;21.238;2022-12-18T06:06:26;20.90;;;9.30;;
56581;SDS011;42463;52.214;21.238;2022-12-18T06:08:54;20.30;;;8.80;;
56581;SDS011;42463;52.214;21.238;2022-12-18T06:11:20;17.30;;;8.60;;
56581;SDS011;42463;52.214;21.238;2022-12-18T06:13:55;18.20;;;8.50;;
56581;SDS011;42463;52.214;21.238;2022-12-18T06:16:22;19.20;;;8.90;;
56581;SDS011;42463;52.214;21.238;2022-12-18T06:18:51;18.60;;;8.90;;
56581;SDS011;42463;52.214;21.238;2022-12-18T06:21:22;19.20;;;9.10;;
56581;SDS011;42463;52.214;21.238;2022-12-18T06:23:48;17.50;;;8.90;;
56581;SDS011;42463;52.214;21.238;2022-12-18T06:26:14;18.20;;;9.40;;
56581;SDS011;42463;52.214;21.238;2022-12-18T06:28:41;16.60;;;8.50;;
56581;SDS011;42463;52.214;21.238;2022-12-18T06:31:07;20.50;;;9.00;;
56581;SDS011;42463;52.214;21.238;2022-12-18T06:33:34;16.80;;;8.60;;
56581;SDS011;42463;52.214;21.238;2022-12-18T06:36:02;17.50;;;7.90;;
56581;SDS011;42463;52.214;21.238;2022-12-18T06:38:29;16.90;;;8.60;;
56581;SDS011;42463;52.214;21.238;2022-12-18T06:40:55;16.70;;;9.10;;
56581;SDS011;42463;52.214;21.238;2022-12-18T06:43:21;16.90;;;7.60;;
56581;SDS011;42463;52.214;21.238;2022-12-18T06:45:47;22.00;;;9.90;;
56581;SDS011;42463;52.214;21.238;2022-12-18T06:48:15;20.10;;;9.70;;
56581;SDS011;42463;52.214;21.238;2022-12-18T06:50:43;21.60;;;9.90;;
56581;SDS011;42463;52.214;21.238;2022-12-18T06:53:16;15.50;;;7.80;;
56581;SDS011;42463;52.214;21.238;2022-12-18T06:55:46;17.60;;;9.00;;
56581;SDS011;42463;52.214;21.238;2022-12-18T06:58:19;17.20;;;8.30;;
56581;SDS011;42463;52.214;21.238;2022-12-18T07:01:01;21.60;;;9.60;;
56581;SDS011;42463;52.214;21.238;2022-12-18T07:03:32;20.20;;;9.50;;
56581;SDS011;42463;52.214;21.238;2022-12-18T07:06:03;21.00;;;10.40;;
56581;SDS011;42463;52.214;21.238;2022-12-18T07:08:30;20.10;;;9.40;;
56581;SDS011;42463;52.214;21.238;2022-12-18T07:10:56;21.80;;;9.80;;
56581;SDS011;42463;52.214;21.238;2022-12-18T07:13:22;20.60;;;10.10;;
56581;SDS011;42463;52.214;21.238;2022-12-18T07:15:49;22.70;;;10.80;;
56581;SDS011;42463;52.214;21.238;2022-12-18T07:18:18;25.40;;;11.50;;
56581;SDS011;42463;52.214;21.238;2022-12-18T07:20:43;22.90;;;9.90;;
56581;SDS011;42463;52.214;21.238;2022-12-18T07:23:11;25.90;;;10.90;;
56581;SDS011;42463;52.214;21.238;2022-12-18T07:25:41;24.60;;;10.30;;
56581;SDS011;42463;52.214;21.238;2022-12-18T07:28:25;23.60;;;10.10;;
56581;SDS011;42463;52.214;21.238;2022-12-18T07:30:50;24.40;;;10.40;;
56581;SDS011;42463;52.214;21.238;2022-12-18T07:33:16;22.90;;;10.60;;
56581;SDS011;42463;52.214;21.238;2022-12-18T07:35:42;21.50;;;10.60;;
56581;SDS011;42463;52.214;21.238;2022-12-18T07:38:07;31.20;;;13.00;;
56581;SDS011;42463;52.214;21.238;2022-12-18T07:40:37;28.00;;;12.80;;
56581;SDS011;42463;52.214;21.238;2022-12-18T07:43:02;26.90;;;12.10;;
56581;SDS011;42463;52.214;21.238;2022-12-18T07:45:27;28.30;;;12.80;;
56581;SDS011;42463;52.214;21.238;2022-12-18T07:47:55;29.70;;;13.10;;
56581;SDS011;42463;52.214;21.238;2022-12-18T07:50:20;28.30;;;13.00;;
56581;SDS011;42463;52.214;21.238;2022-12-18T07:52:46;27.90;;;11.70;;
56581;SDS011;42463;52.214;21.238;2022-12-18T07:55:11;23.90;;;10.10;;
56581;SDS011;42463;52.214;21.238;2022-12-18T07:57:37;25.40;;;10.10;;
56581;SDS011;42463;52.214;21.238;2022-12-18T08:00:02;30.90;;;11.40;;
56581;SDS011;42463;52.214;21.238;2022-12-18T08:02:35;28.40;;;11.00;;
56581;SDS011;42463;52.214;21.238;2022-12-18T08:05:00;29.30;;;11.90;;
56581;SDS011;42463;52.214;21.238;2022-12-18T08:07:27;35.00;;;13.00;;
56581;SDS011;42463;52.214;21.238;2022-12-18T08:09:52;30.10;;;11.20;;
56581;SDS011;42463;52.214;21.238;2022-12-18T08:12:17;27.00;;;10.60;;
56581;SDS011;42463;52.214;21.238;2022-12-18T08:14:45;24.30;;;11.40;;
56581;SDS011;42463;52.214;21.238;2022-12-18T08:17:13;28.20;;;12.30;;
56581;SDS011;42463;52.214;21.238;2022-12-18T08:19:38;29.60;;;11.20;;
56581;SDS011;42463;52.214;21.238;2022-12-18T08:22:02;24.70;;;11.80;;
56581;SDS011;42463;52.214;21.238;2022-12-18T08:24:28;29.00;;;12.10;;
56581;SDS011;42463;52.214;21.238;2022-12-18T08:26:53;32.10;;;12.30;;
56581;SDS011;42463;52.214;21.238;2022-12-18T08:29:19;30.10;;;12.60;;
56581;SDS011;42463;52.214;21.238;2022-12-18T08:31:45;31.10;;;12.30;;
56581;SDS011;42463;52.214;21.238;2022-12-18T08:34:11;28.50;;;12.20;;
56581;SDS011;42463;52.214;21.238;2022-12-18T08:36:38;29.00;;;11.40;;
56581;SDS011;42463;52.214;21.238;2022-12-18T08:39:07;31.20;;;11.90;;
56581;SDS011;42463;52.214;21.238;2022-12-18T08:41:32;33.30;;;13.50;;
56581;SDS011;42463;52.214;21.238;2022-12-18T08:43:57;39.50;;;14.60;;
56581;SDS011;42463;52.214;21.238;2022-12-18T08:46:43;26.30;;;10.10;;
56581;SDS011;42463;52.214;21.238;2022-12-18T08:49:17;33.00;;;12.30;;
56581;SDS011;42463;52.214;21.238;2022-12-18T08:51:42;34.20;;;12.60;;
56581;SDS011;42463;52.214;21.238;2022-12-18T08:54:09;39.00;;;15.20;;
56581;SDS011;42463;52.214;21.238;2022-12-18T08:56:37;39.40;;;15.70;;
56581;SDS011;42463;52.214;21.238;2022-12-18T08:59:04;33.10;;;11.80;;
56581;SDS011;42463;52.214;21.238;2022-12-18T09:01:30;44.70;;;14.50;;
56581;SDS011;42463;52.214;21.238;2022-12-18T09:03:55;45.40;;;15.80;;
56581;SDS011;42463;52.214;21.238;2022-12-18T09:06:20;43.40;;;15.10;;
56581;SDS011;42463;52.214;21.238;2022-12-18T09:08:46;49.50;;;16.70;;
56581;SDS011;42463;52.214;21.238;2022-12-18T09:11:13;50.80;;;18.10;;
56581;SDS011;42463;52.214;21.238;2022-12-18T09:13:42;42.80;;;15.80;;
56581;SDS011;42463;52.214;21.238;2022-12-18T09:16:08;41.90;;;16.00;;
56581;SDS011;42463;52.214;21.238;2022-12-18T09:18:33;48.30;;;17.20;;
56581;SDS011;42463;52.214;21.238;2022-12-18T09:21:06;45.50;;;17.40;;
56581;SDS011;42463;52.214;21.238;2022-12-18T09:23:34;44.30;;;17.00;;
56581;SDS011;42463;52.214;21.238;2022-12-18T09:25:59;49.00;;;18.00;;
56581;SDS011;42463;52.214;21.238;2022-12-18T09:28:29;41.00;;;15.40;;
56581;SDS011;42463;52.214;21.238;2022-12-18T09:30:53;45.50;;;17.00;;
56581;SDS011;42463;52.214;21.238;2022-12-18T09:33:18;43.70;;;16.30;;
56581;SDS011;42463;52.214;21.238;2022-12-18T09:35:44;48.90;;;15.30;;
56581;SDS011;42463;52.214;21.238;2022-12-18T09:38:11;54.90;;;19.30;;
56581;SDS011;42463;52.214;21.238;2022-12-18T09:40:41;46.80;;;17.20;;
56581;SDS011;42463;52.214;21.238;2022-12-18T09:43:15;49.80;;;16.30;;
56581;SDS011;42463;52.214;21.238;2022-12-18T09:45:43;41.80;;;14.80;;
56581;SDS011;42463;52.214;21.238;2022-12-18T09:48:11;42.40;;;16.70;;
56581;SDS011;42463;52.214;21.238;2022-12-18T09:50:43;42.30;;;15.10;;
56581;SDS011;42463;52.214;21.238;2022-12-18T09:53:12;46.80;;;15.40;;
56581;SDS011;42463;52.214;21.238;2022-12-18T09:55:42;43.10;;;15.40;;
56581;SDS011;42463;52.214;21.238;2022-12-18T09:58:13;47.30;;;16.10;;
56581;SDS011;42463;52.214;21.238;2022-12-18T10:00:47;43.10;;;14.50;;
56581;SDS011;42463;52.214;21.238;2022-12-18T10:03:14;38.50;;;14.50;;
56581;SDS011;42463;52.214;21.238;2022-12-18T10:05:41;30.70;;;11.40;;
56581;SDS011;42463;52.214;21.238;2022-12-18T10:08:13;45.20;;;15.80;;
56581;SDS011;42463;52.214;21.238;2022-12-18T10:10:46;45.90;;;16.80;;
56581;SDS011;42463;52.214;21.238;2022-12-18T10:13:30;44.60;;;16.70;;
56581;SDS011;42463;52.214;21.238;2022-12-18T10:16:07;40.00;;;16.70;;
56581;SDS011;42463;52.214;21.238;2022-12-18T10:18:46;48.80;;;17.60;;
56581;SDS011;42463;52.214;21.238;2022-12-18T10:21:27;43.90;;;15.80;;
56581;SDS011;42463;52.214;21.238;2022-12-18T10:23:58;52.00;;;18.00;;
56581;SDS011;42463;52.214;21.238;2022-12-18T10:26:36;42.70;;;15.70;;
56581;SDS011;42463;52.214;21.238;2022-12-18T10:29:03;46.00;;;17.80;;
56581;SDS011;42463;52.214;21.238;2022-12-18T10:31:32;43.90;;;17.50;;
56581;SDS011;42463;52.214;21.238;2022-12-18T10:33:57;39.40;;;15.50;;
56581;SDS011;42463;52.214;21.238;2022-12-18T10:36:24;42.30;;;17.10;;
56581;SDS011;42463;52.214;21.238;2022-12-18T10:38:50;45.80;;;14.60;;
56581;SDS011;42463;52.214;21.238;2022-12-18T10:41:26;38.30;;;16.00;;
56581;SDS011;42463;52.214;21.238;2022-12-18T10:44:09;43.20;;;16.40;;
56581;SDS011;42463;52.214;21.238;2022-12-18T10:46:39;44.40;;;16.20;;
56581;SDS011;42463;52.214;21.238;2022-12-18T10:49:05;40.10;;;16.70;;
56581;SDS011;42463;52.214;21.238;2022-12-18T10:51:42;39.30;;;17.40;;
56581;SDS011;42463;52.214;21.238;2022-12-18T10:54:12;38.50;;;16.10;;
56581;SDS011;42463;52.214;21.238;2022-12-18T10:56:40;40.30;;;14.10;;
56581;SDS011;42463;52.214;21.238;2022-12-18T10:59:10;39.80;;;16.60;;
56581;SDS011;42463;52.214;21.238;2022-12-18T11:01:47;47.90;;;15.70;;
56581;SDS011;42463;52.214;21.238;2022-12-18T11:04:16;43.50;;;15.70;;
56581;SDS011;42463;52.214;21.238;2022-12-18T11:06:53;35.20;;;15.10;;
56581;SDS011;42463;52.214;21.238;2022-12-18T11:09:23;36.80;;;16.40;;
56581;SDS011;42463;52.214;21.238;2022-12-18T11:11:52;41.20;;;16.20;;
56581;SDS011;42463;52.214;21.238;2022-12-18T11:14:20;42.50;;;16.20;;
56581;SDS011;42463;52.214;21.238;2022-12-18T11:16:47;40.70;;;17.00;;
56581;SDS011;42463;52.214;21.238;2022-12-18T11:19:31;40.50;;;17.10;;
56581;SDS011;42463;52.214;21.238;2022-12-18T11:21:59;39.00;;;15.40;;
56581;SDS011;42463;52.214;21.238;2022-12-18T11:24:28;49.30;;;19.10;;
56581;SDS011;42463;52.214;21.238;2022-12-18T11:26:57;38.00;;;16.00;;
56581;SDS011;42463;52.214;21.238;2022-12-18T11:29:27;49.50;;;18.40;;
56581;SDS011;42463;52.214;21.238;2022-12-18T11:32:07;41.80;;;17.10;;
56581;SDS011;42463;52.214;21.238;2022-12-18T11:34:47;41.30;;;15.30;;
56581;SDS011;42463;52.214;21.238;2022-12-18T11:37:17;44.40;;;17.70;;
56581;SDS011;42463;52.214;21.238;2022-12-18T11:39:44;40.30;;;15.60;;
56581;SDS011;42463;52.214;21.238;2022-12-18T11:42:14;46.10;;;17.50;;
56581;SDS011;42463;52.214;21.238;2022-12-18T11:44:48;47.50;;;17.90;;
56581;SDS011;42463;52.214;21.238;2022-12-18T11:47:21;36.50;;;14.60;;
56581;SDS011;42463;52.214;21.238;2022-12-18T11:49:51;46.60;;;17.90;;
56581;SDS011;42463;52.214;21.238;2022-12-18T11:52:21;45.60;;;18.10;;
56581;SDS011;42463;52.214;21.238;2022-12-18T11:54:49;51.30;;;19.90;;
56581;SDS011;42463;52.214;21.238;2022-12-18T11:57:18;47.80;;;18.20;;
56581;SDS011;42463;52.214;21.238;2022-12-18T11:59:58;42.20;;;17.30;;
56581;SDS011;42463;52.214;21.238;2022-12-18T12:02:38;44.60;;;17.30;;
56581;SDS011;42463;52.214;21.238;2022-12-18T12:05:24;43.60;;;17.70;;
56581;SDS011;42463;52.214;21.238;2022-12-18T12:08:00;54.90;;;18.90;;
56581;SDS011;42463;52.214;21.238;2022-12-18T12:10:34;45.00;;;17.50;;
56581;SDS011;42463;52.214;21.238;2022-12-18T12:13:13;44.70;;;18.00;;
56581;SDS011;42463;52.214;21.238;2022-12-18T12:15:48;48.90;;;18.30;;
56581;SDS011;42463;52.214;21.238;2022-12-18T12:20:56;43.20;;;16.00;;
56581;SDS011;42463;52.214;21.238;2022-12-18T12:23:31;53.50;;;21.10;;
56581;SDS011;42463;52.214;21.238;2022-12-18T12:26:18;51.70;;;21.20;;
56581;SDS011;42463;52.214;21.238;2022-12-18T12:31:24;49.90;;;21.60;;
56581;SDS011;42463;52.214;21.238;2022-12-18T12:33:58;51.40;;;21.80;;
56581;SDS011;42463;52.214;21.238;2022-12-18T12:36:35;45.70;;;20.80;;
56581;SDS011;42463;52.214;21.238;2022-12-18T12:39:07;45.10;;;19.50;;
56581;SDS011;42463;52.214;21.238;2022-12-18T12:41:37;56.50;;;23.40;;
56581;SDS011;42463;52.214;21.238;2022-12-18T12:44:25;61.80;;;23.90;;
56581;SDS011;42463;52.214;21.238;2022-12-18T12:47:14;56.10;;;22.10;;
56581;SDS011;42463;52.214;21.238;2022-12-18T12:49:54;47.60;;;20.10;;
56581;SDS011;42463;52.214;21.238;2022-12-18T12:52:27;53.00;;;21.60;;
56581;SDS011;42463;52.214;21.238;2022-12-18T12:54:56;60.30;;;22.30;;
56581;SDS011;42463;52.214;21.238;2022-12-18T12:57:26;47.70;;;19.50;;
56581;SDS011;42463;52.214;21.238;2022-12-18T12:59:59;47.20;;;20.30;;
56581;SDS011;42463;52.214;21.238;2022-12-18T13:02:28;57.40;;;23.00;;
56581;SDS011;42463;52.214;21.238;2022-12-18T13:05:01;59.90;;;25.40;;
56581;SDS011;42463;52.214;21.238;2022-12-18T13:07:39;57.80;;;23.80;;
56581;SDS011;42463;52.214;21.238;2022-12-18T13:12:57;57.50;;;23.00;;
56581;SDS011;42463;52.214;21.238;2022-12-18T13:15:25;59.70;;;23.10;;
56581;SDS011;42463;52.214;21.238;2022-12-18T13:18:10;52.00;;;20.10;;
56581;SDS011;42463;52.214;21.238;2022-12-18T13:20:39;51.10;;;21.00;;
56581;SDS011;42463;52.214;21.238;2022-12-18T13:26:28;61.40;;;23.40;;
56581;SDS011;42463;52.214;21.238;2022-12-18T13:28:57;65.20;;;23.20;;
56581;SDS011;42463;52.214;21.238;2022-12-18T13:34:41;49.40;;;19.90;;
56581;SDS011;42463;52.214;21.238;2022-12-18T13:43:24;50.40;;;20.30;;
56581;SDS011;42463;52.214;21.238;2022-12-18T13:46:00;62.80;;;24.40;;
56581;SDS011;42463;52.214;21.238;2022-12-18T13:48:48;61.60;;;23.80;;
56581;SDS011;42463;52.214;21.238;2022-12-18T13:53:44;57.80;;;21.50;;
56581;SDS011;42463;52.214;21.238;2022-12-18T13:56:16;57.30;;;21.30;;
56581;SDS011;42463;52.214;21.238;2022-12-18T13:58:44;55.00;;;20.20;;
56581;SDS011;42463;52.214;21.238;2022-12-18T14:01:17;54.90;;;20.50;;
56581;SDS011;42463;52.214;21.238;2022-12-18T14:03:48;52.20;;;19.10;;
56581;SDS011;42463;52.214;21.238;2022-12-18T14:06:34;52.40;;;20.30;;
56581;SDS011;42463;52.214;21.238;2022-12-18T14:09:00;58.90;;;21.60;;
56581;SDS011;42463;52.214;21.238;2022-12-18T14:11:25;56.90;;;19.90;;
56581;SDS011;42463;52.214;21.238;2022-12-18T14:13:51;58.00;;;21.40;;
56581;SDS011;42463;52.214;21.238;2022-12-18T14:16:17;54.40;;;19.60;;
56581;SDS011;42463;52.214;21.238;2022-12-18T14:18:43;50.90;;;19.80;;
56581;SDS011;42463;52.214;21.238;2022-12-18T14:21:19;50.90;;;19.50;;
56581;SDS011;42463;52.214;21.238;2022-12-18T14:23:46;52.20;;;20.10;;
56581;SDS011;42463;52.214;21.238;2022-12-18T14:26:21;55.20;;;19.50;;
56581;SDS011;42463;52.214;21.238;2022-12-18T14:28:50;44.30;;;17.70;;
56581;SDS011;42463;52.214;21.238;2022-12-18T14:31:21;51.40;;;19.40;;
56581;SDS011;42463;52.214;21.238;2022-12-18T14:33:48;49.60;;;17.40;;
56581;SDS011;42463;52.214;21.238;2022-12-18T14:36:14;53.50;;;19.20;;
56581;SDS011;42463;52.214;21.238;2022-12-18T14:38:42;52.50;;;18.80;;
56581;SDS011;42463;52.214;21.238;2022-12-18T14:41:11;46.60;;;16.70;;
56581;SDS011;42463;52.214;21.238;2022-12-18T14:43:41;51.90;;;18.80;;
56581;SDS011;42463;52.214;21.238;2022-12-18T14:48:59;40.80;;;15.50;;
56581;SDS011;42463;52.214;21.238;2022-12-18T14:51:28;46.30;;;16.80;;
56581;SDS011;42463;52.214;21.238;2022-12-18T14:53:57;48.40;;;18.20;;
56581;SDS011;42463;52.214;21.238;2022-12-18T14:56:25;44.30;;;17.10;;